Time;durP1;ratioP1;P1;durP2;ratioP2;P2;SDS_P1;SDS_P2;PMS_P1;PMS_P2;Temp;Humidity;BMP_temperature;BMP_pressure;BME280_temperature;BME280_humidity;BME280_pressure;Samples;Min_cycle;Max_cycle;Signal;HPM_P1;HPM_P2
2024/01/18 00:02:10;;;;;;;26.23;12.40;;;-0.50;99.90;;;;;;5072678;28;20220;-60
2024/01/18 00:04:36;;;;;;;16.15;11.35;;;-0.50;99.90;;;;;;5072794;28;20212;-63
2024/01/18 00:07:04;;;;;;;16.30;11.80;;;-0.50;99.90;;;;;;5072979;28;20208;-61
2024/01/18 00:09:31;;;;;;;15.55;12.18;;;-0.50;99.90;;;;;;5072860;28;20201;-62
2024/01/18 00:11:58;;;;;;;17.90;12.52;;;-0.50;99.90;;;;;;5072646;28;20278;-63
2024/01/18 00:14:25;;;;;;;22.13;13.23;;;-0.50;99.90;;;;;;5072968;28;20206;-62
2024/01/18 00:16:52;;;;;;;18.88;12.80;;;-0.50;99.90;;;;;;5072800;28;20205;-62
2024/01/18 00:19:18;;;;;;;27.17;13.82;;;-0.50;99.90;;;;;;5072977;28;20205;-60
2024/01/18 00:21:45;;;;;;;18.88;13.70;;;-0.50;99.90;;;;;;5072690;28;20680;-61
2024/01/18 00:24:13;;;;;;;19.00;13.15;;;-0.50;99.90;;;;;;5072685;28;20216;-61
2024/01/18 00:26:40;;;;;;;19.38;13.48;;;-0.50;99.90;;;;;;5073025;28;20201;-62
2024/01/18 00:29:07;;;;;;;21.08;15.20;;;-0.50;99.90;;;;;;5076005;28;20201;-61
2024/01/18 00:31:34;;;;;;;19.92;13.63;;;-0.50;99.90;;;;;;5076908;28;20232;-62
2024/01/18 00:34:00;;;;;;;17.45;13.50;;;-0.50;99.90;;;;;;5076773;28;20201;-61
2024/01/18 00:36:28;;;;;;;20.23;14.95;;;-0.50;99.90;;;;;;5078276;28;20204;-60
2024/01/18 00:38:55;;;;;;;25.15;13.93;;;-0.50;99.90;;;;;;5080251;28;20220;-60
2024/01/18 00:41:23;;;;;;;17.95;13.45;;;-0.50;99.90;;;;;;5078545;28;20224;-61
2024/01/18 00:43:50;;;;;;;25.55;15.30;;;-0.50;99.90;;;;;;5077857;28;20205;-61
2024/01/18 00:46:19;;;;;;;19.77;13.13;;;-0.50;99.90;;;;;;5078883;28;20232;-62
2024/01/18 00:48:45;;;;;;;19.65;12.93;;;-0.50;99.90;;;;;;5077668;28;20197;-63
2024/01/18 00:51:13;;;;;;;23.15;13.27;;;-0.50;99.90;;;;;;5077642;28;20682;-62
2024/01/18 00:53:41;;;;;;;23.27;13.43;;;-0.50;99.90;;;;;;5077271;28;20196;-62
2024/01/18 00:56:09;;;;;;;18.10;12.95;;;-0.50;99.90;;;;;;5076791;28;20205;-62
2024/01/18 00:58:38;;;;;;;19.33;13.75;;;-0.50;99.90;;;;;;5076192;28;20710;-62
2024/01/18 01:01:04;;;;;;;25.20;15.57;;;-0.50;99.90;;;;;;5076234;28;20216;-63
2024/01/18 01:03:31;;;;;;;23.60;13.43;;;-0.50;99.90;;;;;;5075957;28;20200;-67
2024/01/18 01:05:58;;;;;;;19.45;15.02;;;-0.50;99.90;;;;;;5076204;28;20579;-62
2024/01/18 01:08:24;;;;;;;24.67;15.43;;;-0.60;99.90;;;;;;5076149;28;20200;-62
2024/01/18 01:10:51;;;;;;;18.77;14.65;;;-0.60;99.90;;;;;;5075911;28;20242;-62
2024/01/18 01:13:18;;;;;;;21.15;14.57;;;-0.60;99.90;;;;;;5075751;28;20739;-62
2024/01/18 01:15:46;;;;;;;19.42;14.20;;;-0.60;99.90;;;;;;5076049;28;20208;-62
2024/01/18 01:18:13;;;;;;;20.15;13.82;;;-0.60;99.90;;;;;;5075593;28;20703;-62
2024/01/18 01:20:39;;;;;;;22.30;15.90;;;-0.60;99.90;;;;;;5075893;28;20209;-62
2024/01/18 01:23:06;;;;;;;24.45;14.57;;;-0.60;99.90;;;;;;5075987;28;20221;-63
2024/01/18 01:25:34;;;;;;;22.50;15.57;;;-0.70;99.90;;;;;;5075582;28;20242;-62
2024/01/18 01:28:01;;;;;;;20.92;15.05;;;-0.70;99.90;;;;;;5075640;28;20573;-62
2024/01/18 01:30:27;;;;;;;20.90;15.02;;;-0.70;99.90;;;;;;5075919;28;20205;-62
2024/01/18 01:32:55;;;;;;;18.60;13.50;;;-0.70;99.90;;;;;;5075943;28;20603;-62
2024/01/18 01:35:22;;;;;;;20.73;15.07;;;-0.70;99.90;;;;;;5075712;28;20197;-62
2024/01/18 01:37:49;;;;;;;25.17;16.20;;;-0.70;99.90;;;;;;5075844;28;20228;-62
2024/01/18 01:40:16;;;;;;;18.90;14.40;;;-0.70;99.90;;;;;;5075145;28;20579;-62
2024/01/18 01:42:43;;;;;;;24.90;15.68;;;-0.70;99.90;;;;;;5075684;28;20233;-62
2024/01/18 01:45:11;;;;;;;24.73;14.50;;;-0.70;99.90;;;;;;5075478;28;20596;-62
2024/01/18 01:47:38;;;;;;;21.42;15.90;;;-0.70;99.90;;;;;;5075658;28;20197;-63
2024/01/18 01:50:08;;;;;;;21.20;14.98;;;-0.80;99.90;;;;;;5075539;28;20204;-62
2024/01/18 01:52:36;;;;;;;18.33;14.48;;;-0.80;99.90;;;;;;5075313;28;20622;-62
2024/01/18 01:55:03;;;;;;;22.27;14.40;;;-0.80;99.90;;;;;;5079853;28;20212;-62
2024/01/18 01:57:30;;;;;;;21.80;14.27;;;-0.80;99.90;;;;;;5075490;28;20681;-62
2024/01/18 01:59:57;;;;;;;21.83;15.75;;;-0.80;99.90;;;;;;5075535;28;20212;-62
2024/01/18 02:02:24;;;;;;;20.38;14.32;;;-0.80;99.90;;;;;;5075052;28;20229;-62
2024/01/18 02:04:51;;;;;;;24.95;15.95;;;-0.80;99.90;;;;;;5075005;28;20208;-61
2024/01/18 02:07:20;;;;;;;20.77;14.82;;;-0.80;99.90;;;;;;5075609;28;20209;-61
2024/01/18 02:09:47;;;;;;;22.05;13.90;;;-0.80;99.90;;;;;;5076151;28;20547;-62
2024/01/18 02:12:15;;;;;;;29.40;17.02;;;-0.80;99.90;;;;;;5074851;28;20228;-60
2024/01/18 02:14:42;;;;;;;22.92;15.90;;;-0.80;99.90;;;;;;5074851;28;20201;-63
2024/01/18 02:17:09;;;;;;;19.63;15.27;;;-0.80;99.90;;;;;;5075113;28;20201;-62
2024/01/18 02:19:36;;;;;;;21.15;14.18;;;-0.80;99.90;;;;;;5075138;28;20232;-63
2024/01/18 02:22:05;;;;;;;23.73;16.05;;;-0.70;99.90;;;;;;5075036;28;20599;-61
2024/01/18 02:24:40;;;;;;;23.55;15.60;;;-0.80;99.90;;;;;;5075244;28;20197;-60
2024/01/18 02:27:09;;;;;;;23.10;15.38;;;-0.80;99.90;;;;;;5080129;28;20185;-61
2024/01/18 02:29:35;;;;;;;21.80;15.75;;;-0.80;99.90;;;;;;5079498;28;20223;-61
2024/01/18 02:32:02;;;;;;;22.42;16.42;;;-0.80;99.90;;;;;;5079989;28;20221;-61
2024/01/18 02:34:29;;;;;;;24.38;15.85;;;-0.80;99.90;;;;;;5079996;28;20201;-61
2024/01/18 02:36:56;;;;;;;21.83;15.23;;;-0.80;99.90;;;;;;5076148;28;20203;-62
2024/01/18 02:39:23;;;;;;;22.40;17.10;;;-0.80;99.90;;;;;;5074592;28;20227;-62
2024/01/18 02:41:50;;;;;;;22.55;15.70;;;-0.80;99.90;;;;;;5074333;28;20217;-61
2024/01/18 02:44:18;;;;;;;19.08;15.05;;;-0.80;99.90;;;;;;5074631;28;20204;-61
2024/01/18 02:46:46;;;;;;;23.08;16.55;;;-0.80;99.90;;;;;;5074618;28;20201;-62
2024/01/18 02:49:13;;;;;;;24.25;15.93;;;-0.80;99.90;;;;;;5074714;28;20322;-62
2024/01/18 02:51:40;;;;;;;23.35;16.58;;;-0.80;99.90;;;;;;5074060;28;20221;-62
2024/01/18 02:54:07;;;;;;;21.55;15.30;;;-0.80;99.90;;;;;;5075296;28;20209;-62
2024/01/18 02:56:33;;;;;;;21.27;16.92;;;-0.80;99.90;;;;;;5076845;28;20556;-62
2024/01/18 02:59:00;;;;;;;22.00;16.55;;;-0.90;99.90;;;;;;5082447;28;20232;-61
2024/01/18 03:01:28;;;;;;;25.63;17.55;;;-0.90;99.90;;;;;;5096684;22;20233;-65
2024/01/18 03:03:55;;;;;;;22.95;15.70;;;-0.90;99.90;;;;;;5036025;28;20202;-65
2024/01/18 03:06:22;;;;;;;19.98;15.73;;;-0.80;99.90;;;;;;5035649;28;20206;-65
2024/01/18 03:08:49;;;;;;;26.05;16.73;;;-0.80;99.90;;;;;;5035595;28;20572;-65
2024/01/18 03:11:16;;;;;;;22.48;16.70;;;-0.90;99.90;;;;;;5035228;28;20257;-64
2024/01/18 03:13:43;;;;;;;25.20;17.70;;;-0.90;99.90;;;;;;5035500;28;20199;-64
2024/01/18 03:16:11;;;;;;;22.40;17.52;;;-0.90;99.90;;;;;;5035557;28;20209;-65
2024/01/18 03:18:42;;;;;;;20.95;16.02;;;-0.90;99.90;;;;;;5035107;28;20226;-64
2024/01/18 03:21:08;;;;;;;24.15;16.75;;;-0.90;99.90;;;;;;5035542;28;20667;-65
2024/01/18 03:23:35;;;;;;;25.50;18.23;;;-0.90;99.90;;;;;;5035757;28;20210;-65
2024/01/18 03:26:01;;;;;;;39.67;28.92;;;-0.90;99.90;;;;;;5035084;28;20653;-64
2024/01/18 03:28:28;;;;;;;46.40;34.40;;;-0.90;99.90;;;;;;5036199;28;20198;-65
2024/01/18 03:30:54;;;;;;;39.55;27.48;;;-0.90;99.90;;;;;;5035809;28;20568;-64
2024/01/18 03:33:21;;;;;;;34.50;24.65;;;-0.90;99.90;;;;;;5036170;28;20289;-65
2024/01/18 03:35:49;;;;;;;26.25;20.35;;;-0.90;99.90;;;;;;5035890;28;20203;-64
2024/01/18 03:38:16;;;;;;;28.35;19.77;;;-0.90;99.90;;;;;;5037380;28;20222;-64
2024/01/18 03:40:43;;;;;;;25.20;19.85;;;-0.90;99.90;;;;;;5037481;28;20225;-64
2024/01/18 03:43:09;;;;;;;29.55;18.08;;;-0.90;99.90;;;;;;5037112;28;20711;-65
2024/01/18 03:45:36;;;;;;;24.73;18.85;;;-0.90;99.90;;;;;;5037608;28;20297;-65
2024/01/18 03:48:03;;;;;;;26.77;19.48;;;-0.90;99.90;;;;;;5038016;28;20213;-64
2024/01/18 03:50:30;;;;;;;26.80;20.13;;;-0.90;99.90;;;;;;5037886;28;20202;-64
2024/01/18 03:52:58;;;;;;;26.02;18.25;;;-0.80;99.90;;;;;;5036375;28;20703;-64
2024/01/18 03:55:25;;;;;;;24.90;17.85;;;-0.80;99.90;;;;;;5036410;28;20708;-64
2024/01/18 03:57:51;;;;;;;23.50;17.25;;;-0.80;99.90;;;;;;5037381;28;20198;-65
2024/01/18 04:00:19;;;;;;;26.17;19.42;;;-0.80;99.90;;;;;;5036884;28;20229;-65
2024/01/18 04:02:45;;;;;;;21.80;17.17;;;-0.80;99.90;;;;;;5035235;28;20241;-63
2024/01/18 04:05:12;;;;;;;25.95;18.95;;;-0.80;99.90;;;;;;5039673;28;20207;-65
2024/01/18 04:07:39;;;;;;;26.77;17.15;;;-0.80;99.90;;;;;;5040261;28;20202;-65
2024/01/18 04:13:02;;;;;;;23.00;18.05;;;-0.80;99.90;;;;;;5143519;27;20550;-65
2024/01/18 04:15:29;;;;;;;24.20;19.52;;;-0.80;99.90;;;;;;5142385;28;20708;-65
2024/01/18 04:17:56;;;;;;;25.90;17.80;;;-0.80;99.90;;;;;;5142149;28;20644;-65
2024/01/18 04:20:27;;;;;;;27.27;19.20;;;-0.80;99.90;;;;;;5141697;28;20199;-65
2024/01/18 04:22:54;;;;;;;23.17;17.98;;;-0.80;99.90;;;;;;5142610;27;20218;-65
2024/01/18 04:25:21;;;;;;;22.58;18.95;;;-0.80;99.90;;;;;;5142867;28;20368;-66
2024/01/18 04:27:48;;;;;;;23.02;18.30;;;-0.70;99.90;;;;;;5142832;28;20217;-66
2024/01/18 04:30:16;;;;;;;29.95;19.65;;;-0.80;99.90;;;;;;5141126;28;20684;-65
2024/01/18 04:32:43;;;;;;;25.85;18.10;;;-0.80;99.90;;;;;;5139825;27;20223;-66
2024/01/18 04:35:10;;;;;;;21.45;17.70;;;-0.80;99.90;;;;;;5137806;28;20209;-65
2024/01/18 04:37:37;;;;;;;25.02;19.45;;;-0.80;99.90;;;;;;5137218;28;20210;-66
2024/01/18 04:40:04;;;;;;;25.75;19.75;;;-0.80;99.90;;;;;;5138523;28;20199;-65
2024/01/18 04:42:31;;;;;;;27.63;19.23;;;-0.80;99.90;;;;;;5136601;27;20277;-65
2024/01/18 04:44:58;;;;;;;21.83;17.58;;;-0.80;99.90;;;;;;5135939;28;20205;-64
2024/01/18 04:47:26;;;;;;;27.98;18.27;;;-0.90;99.90;;;;;;5137894;28;20278;-65
2024/01/18 04:49:53;;;;;;;27.42;19.63;;;-0.90;99.90;;;;;;5136289;28;20290;-66
2024/01/18 04:52:20;;;;;;;26.08;19.08;;;-0.90;99.90;;;;;;5137958;27;20223;-66
2024/01/18 04:54:47;;;;;;;27.83;19.27;;;-0.90;99.90;;;;;;5135868;28;20199;-65
2024/01/18 04:57:14;;;;;;;27.38;18.50;;;-0.90;99.90;;;;;;5136737;28;20226;-66
2024/01/18 04:59:41;;;;;;;27.42;18.88;;;-0.90;99.90;;;;;;5139500;28;20199;-65
2024/01/18 05:02:08;;;;;;;24.80;17.48;;;-0.90;99.90;;;;;;5140945;27;20211;-65
2024/01/18 05:04:36;;;;;;;27.48;20.23;;;-0.90;99.90;;;;;;5141939;28;20210;-65
2024/01/18 05:07:03;;;;;;;28.70;20.70;;;-0.90;99.90;;;;;;5139131;28;20289;-65
2024/01/18 05:09:29;;;;;;;28.40;19.08;;;-0.90;99.90;;;;;;5137210;28;20195;-65
2024/01/18 05:11:56;;;;;;;29.23;20.17;;;-0.90;99.90;;;;;;5131651;27;20223;-65
2024/01/18 05:14:23;;;;;;;26.20;18.38;;;-0.90;99.90;;;;;;5136253;28;20204;-65
2024/01/18 05:16:51;;;;;;;27.63;21.15;;;-0.90;99.90;;;;;;5139434;28;20195;-64
2024/01/18 05:19:18;;;;;;;26.75;19.50;;;-0.90;99.90;;;;;;5141651;28;20206;-64
2024/01/18 05:21:46;;;;;;;27.67;19.85;;;-0.90;99.90;;;;;;5142149;27;20215;-65
2024/01/18 05:24:13;;;;;;;27.48;21.15;;;-0.90;99.90;;;;;;5129493;28;20200;-65
2024/01/18 05:26:40;;;;;;;25.48;20.50;;;-0.90;99.90;;;;;;5128487;28;20204;-65
2024/01/18 05:29:07;;;;;;;26.38;19.35;;;-0.90;99.90;;;;;;5126598;28;20199;-65
2024/01/18 05:31:33;;;;;;;25.95;18.35;;;-1.00;99.90;;;;;;5125754;28;20219;-64
2024/01/18 05:34:00;;;;;;;27.10;21.27;;;-1.00;99.90;;;;;;5125391;28;20215;-66
2024/01/18 05:36:27;;;;;;;27.50;21.10;;;-1.00;99.90;;;;;;5124600;28;20211;-65
2024/01/18 05:38:55;;;;;;;28.25;20.90;;;-1.00;99.90;;;;;;5122815;28;20203;-65
2024/01/18 05:41:22;;;;;;;25.02;18.98;;;-1.00;99.90;;;;;;5124300;28;20216;-65
2024/01/18 05:43:48;;;;;;;29.00;20.50;;;-1.00;99.90;;;;;;5124942;28;20199;-65
2024/01/18 05:46:15;;;;;;;38.70;22.33;;;-1.00;99.90;;;;;;5120406;28;20203;-65
2024/01/18 05:48:42;;;;;;;23.17;19.88;;;-1.10;99.90;;;;;;5116587;28;20207;-66
2024/01/18 05:51:09;;;;;;;25.95;20.73;;;-1.10;99.90;;;;;;5115993;28;20564;-65
2024/01/18 05:53:35;;;;;;;27.38;20.98;;;-1.20;99.90;;;;;;5116330;28;20203;-64
2024/01/18 05:56:04;;;;;;;29.25;22.50;;;-1.20;99.90;;;;;;5116180;28;20200;-65
2024/01/18 05:58:32;;;;;;;26.67;20.98;;;-1.20;99.90;;;;;;5115691;28;20204;-65
2024/01/18 06:01:00;;;;;;;29.27;21.40;;;-1.20;99.90;;;;;;5116392;28;20230;-65
2024/01/18 06:03:27;;;;;;;33.25;20.05;;;-1.30;99.90;;;;;;5116077;28;20242;-65
2024/01/18 06:05:57;;;;;;;25.00;20.55;;;-1.30;99.90;;;;;;5117009;28;20203;-65
2024/01/18 06:08:24;;;;;;;30.67;20.77;;;-1.30;99.90;;;;;;5117349;28;20572;-64
2024/01/18 06:10:51;;;;;;;26.85;20.40;;;-1.30;99.90;;;;;;5116755;28;20211;-66
2024/01/18 06:13:20;;;;;;;25.77;19.65;;;-1.40;99.90;;;;;;5116658;28;20206;-65
2024/01/18 06:15:47;;;;;;;34.45;23.08;;;-1.40;99.90;;;;;;5117564;28;20207;-65
2024/01/18 06:18:14;;;;;;;30.98;21.23;;;-1.40;99.90;;;;;;5117432;28;20203;-65
2024/01/18 06:20:41;;;;;;;26.75;21.13;;;-1.40;99.90;;;;;;5118942;28;20272;-65
2024/01/18 06:23:07;;;;;;;26.80;19.38;;;-1.40;99.90;;;;;;5116820;28;20306;-65
2024/01/18 06:25:35;;;;;;;28.95;21.58;;;-1.40;99.90;;;;;;5116554;28;20207;-65
2024/01/18 06:28:02;;;;;;;27.40;22.10;;;-1.40;99.90;;;;;;5117949;28;20204;-65
2024/01/18 06:30:30;;;;;;;21.13;18.85;;;-1.40;99.90;;;;;;5117080;28;20202;-65
2024/01/18 06:32:57;;;;;;;26.77;21.30;;;-1.40;99.90;;;;;;5116756;28;20246;-65
2024/01/18 06:35:24;;;;;;;30.23;22.05;;;-1.40;99.90;;;;;;5118413;28;20695;-65
2024/01/18 06:37:52;;;;;;;30.48;23.27;;;-1.50;99.90;;;;;;5120666;28;20204;-65
2024/01/18 06:40:19;;;;;;;31.23;22.00;;;-1.50;99.90;;;;;;5120978;28;20199;-65
2024/01/18 06:42:45;;;;;;;28.17;22.98;;;-1.50;99.90;;;;;;5115653;28;20215;-64
2024/01/18 06:45:12;;;;;;;32.90;21.55;;;-1.50;99.90;;;;;;5115379;28;20222;-65
2024/01/18 06:47:40;;;;;;;31.55;21.10;;;-1.60;99.90;;;;;;5115557;28;20215;-65
2024/01/18 06:50:09;;;;;;;31.92;22.65;;;-1.60;99.90;;;;;;5115281;28;20210;-65
2024/01/18 06:52:37;;;;;;;31.13;22.08;;;-1.60;99.90;;;;;;5115176;28;20221;-65
2024/01/18 06:55:05;;;;;;;30.50;21.60;;;-1.60;99.90;;;;;;5115649;28;20207;-64
2024/01/18 06:57:32;;;;;;;30.45;21.88;;;-1.60;99.90;;;;;;5124770;28;20207;-65
2024/01/18 06:59:58;;;;;;;35.28;23.73;;;-1.60;99.90;;;;;;5123190;28;20210;-64
2024/01/18 07:02:25;;;;;;;30.50;23.48;;;-1.60;99.90;;;;;;5122141;28;20226;-65
2024/01/18 07:04:53;;;;;;;33.90;24.35;;;-1.70;99.90;;;;;;5122573;28;20206;-64
2024/01/18 07:07:20;;;;;;;28.67;23.08;;;-1.70;99.90;;;;;;5122175;28;20210;-64
2024/01/18 07:09:47;;;;;;;34.15;23.38;;;-1.70;99.90;;;;;;5122141;28;20203;-65
2024/01/18 07:12:13;;;;;;;32.60;22.63;;;-1.70;99.90;;;;;;5118990;28;20223;-65
2024/01/18 07:14:40;;;;;;;29.88;23.08;;;-1.70;99.90;;;;;;5126567;28;20204;-65
2024/01/18 07:17:07;;;;;;;30.77;23.42;;;-1.80;99.90;;;;;;5126155;28;20199;-65
2024/01/18 07:19:34;;;;;;;34.28;23.70;;;-1.70;99.90;;;;;;5125472;28;20295;-65
2024/01/18 07:22:02;;;;;;;31.65;24.00;;;-1.80;99.90;;;;;;5121670;28;20713;-63
2024/01/18 07:24:30;;;;;;;32.92;24.77;;;-1.80;99.90;;;;;;5114660;28;20199;-65
2024/01/18 07:26:57;;;;;;;29.02;22.20;;;-1.80;99.90;;;;;;5114960;28;20233;-65
2024/01/18 07:29:24;;;;;;;36.20;25.17;;;-1.80;99.90;;;;;;5114790;28;20203;-64
2024/01/18 07:31:51;;;;;;;31.08;21.65;;;-1.80;99.90;;;;;;5114509;28;20230;-64
2024/01/18 07:34:18;;;;;;;30.73;22.55;;;-1.80;99.90;;;;;;5114371;28;20674;-62
2024/01/18 07:36:44;;;;;;;31.60;22.30;;;-1.80;99.90;;;;;;5114562;28;20203;-64
2024/01/18 07:39:15;;;;;;;32.40;23.17;;;-1.80;99.90;;;;;;5114183;28;20246;-64
2024/01/18 07:41:42;;;;;;;30.80;23.52;;;-1.80;99.90;;;;;;5114619;28;20306;-64
2024/01/18 07:44:09;;;;;;;33.63;24.00;;;-1.80;99.90;;;;;;5114333;28;20203;-64
2024/01/18 07:46:35;;;;;;;30.58;23.60;;;-1.80;99.90;;;;;;5114106;28;20229;-64
2024/01/18 07:49:03;;;;;;;36.63;23.83;;;-1.80;99.90;;;;;;5114966;28;20525;-64
2024/01/18 07:51:30;;;;;;;34.63;22.35;;;-1.80;99.90;;;;;;5113641;28;20219;-64
2024/01/18 07:53:56;;;;;;;26.73;21.73;;;-1.80;99.90;;;;;;5115354;28;20306;-64
2024/01/18 07:56:25;;;;;;;28.02;22.55;;;-1.80;99.90;;;;;;5114038;28;20661;-64
2024/01/18 07:58:51;;;;;;;34.92;23.45;;;-1.80;99.90;;;;;;5114475;28;20214;-65
2024/01/18 08:01:19;;;;;;;36.80;23.90;;;-1.80;99.90;;;;;;5114303;28;20215;-63
2024/01/18 08:03:46;;;;;;;32.60;24.20;;;-1.70;99.90;;;;;;5114447;28;20229;-65
2024/01/18 08:06:11;;;;;;;33.88;23.45;;;-1.70;99.90;;;;;;5114610;28;20200;-62
2024/01/18 08:08:40;;;;;;;31.38;22.17;;;-1.70;99.90;;;;;;5115610;28;20662;-62
2024/01/18 08:11:10;;;;;;;32.47;23.60;;;-1.70;99.90;;;;;;5114158;28;20673;-63
2024/01/18 08:13:38;;;;;;;35.20;22.65;;;-1.70;99.90;;;;;;5115148;28;20219;-64
2024/01/18 08:16:05;;;;;;;34.63;23.23;;;-1.70;99.90;;;;;;5113643;28;20207;-62
2024/01/18 08:18:31;;;;;;;26.80;20.48;;;-1.70;99.90;;;;;;5113870;28;20211;-63
2024/01/18 08:20:58;;;;;;;33.10;22.85;;;-1.60;99.90;;;;;;5113785;28;20211;-64
2024/01/18 08:23:25;;;;;;;28.42;21.88;;;-1.60;99.90;;;;;;5114231;28;20207;-63
2024/01/18 08:25:52;;;;;;;30.48;22.17;;;-1.60;99.90;;;;;;5113806;28;20341;-64
2024/01/18 08:28:18;;;;;;;37.05;22.65;;;-1.60;99.90;;;;;;5113889;28;20200;-63
2024/01/18 08:30:47;;;;;;;33.20;22.65;;;-1.60;99.90;;;;;;5113728;28;20579;-64
2024/01/18 08:33:13;;;;;;;34.20;24.63;;;-1.70;99.90;;;;;;5114091;28;20239;-62
2024/01/18 08:35:40;;;;;;;37.80;24.52;;;-1.70;99.90;;;;;;5113499;28;20200;-63
2024/01/18 08:38:07;;;;;;;36.85;23.00;;;-1.70;99.90;;;;;;5113958;28;20570;-64
2024/01/18 08:40:34;;;;;;;29.08;23.13;;;-1.70;99.90;;;;;;5114996;28;20611;-63
2024/01/18 08:43:02;;;;;;;34.65;25.27;;;-1.70;99.90;;;;;;5114436;28;20723;-63
2024/01/18 08:45:30;;;;;;;32.05;23.05;;;-1.70;99.90;;;;;;5114199;28;20291;-63
2024/01/18 08:47:58;;;;;;;33.60;22.42;;;-1.60;99.90;;;;;;5114223;28;20202;-64
2024/01/18 08:50:25;;;;;;;32.58;24.25;;;-1.60;99.90;;;;;;5114766;28;20203;-64
2024/01/18 08:52:52;;;;;;;27.92;22.67;;;-1.60;99.90;;;;;;5114247;28;20215;-64
2024/01/18 08:55:19;;;;;;;33.92;24.67;;;-1.50;99.90;;;;;;5114076;28;20257;-64
2024/01/18 08:57:46;;;;;;;32.85;23.85;;;-1.40;99.90;;;;;;5115730;28;20208;-64
2024/01/18 09:00:17;;;;;;;36.75;21.95;;;-1.40;99.90;;;;;;5118291;28;20204;-62
2024/01/18 09:02:44;;;;;;;30.42;22.13;;;-1.30;99.90;;;;;;5117662;28;20560;-63
2024/01/18 09:05:12;;;;;;;30.90;22.65;;;-1.20;99.90;;;;;;5117766;28;20210;-62
2024/01/18 09:07:39;;;;;;;34.42;21.63;;;-1.20;99.90;;;;;;5117101;28;20207;-64
2024/01/18 09:10:08;;;;;;;32.45;22.05;;;-1.10;99.90;;;;;;5117572;28;20661;-64
2024/01/18 09:12:35;;;;;;;32.38;23.08;;;-1.00;99.90;;;;;;5117199;28;20292;-64
2024/01/18 09:15:02;;;;;;;27.90;20.33;;;-0.90;99.90;;;;;;5117605;28;20571;-64
2024/01/18 09:17:29;;;;;;;29.92;21.60;;;-0.90;99.90;;;;;;5117409;28;20233;-64
2024/01/18 09:19:56;;;;;;;28.63;21.95;;;-0.80;99.90;;;;;;5117557;28;20552;-64
2024/01/18 09:22:24;;;;;;;30.40;21.15;;;-0.80;99.90;;;;;;5118168;28;20220;-63
2024/01/18 09:24:51;;;;;;;25.95;21.20;;;-0.70;99.90;;;;;;5117602;28;20206;-64
2024/01/18 09:27:18;;;;;;;26.98;19.75;;;-0.60;99.90;;;;;;5118421;28;20207;-64
2024/01/18 09:29:45;;;;;;;26.00;20.58;;;-0.60;99.90;;;;;;5117657;28;20203;-64
2024/01/18 09:32:12;;;;;;;28.45;20.80;;;-0.60;99.90;;;;;;5117744;28;20720;-63
2024/01/18 09:34:38;;;;;;;26.55;19.05;;;-0.60;99.90;;;;;;5117247;28;20214;-63
2024/01/18 09:37:05;;;;;;;30.63;20.58;;;-0.50;99.90;;;;;;5118033;28;20208;-64
2024/01/18 09:39:33;;;;;;;22.25;18.15;;;-0.50;99.90;;;;;;5119214;28;20231;-64
2024/01/18 09:42:03;;;;;;;23.90;18.63;;;-0.40;99.90;;;;;;5119270;28;20219;-64
2024/01/18 09:44:31;;;;;;;23.33;18.65;;;-0.40;99.90;;;;;;5119340;28;20218;-63
2024/01/18 09:46:59;;;;;;;23.90;18.13;;;-0.40;99.90;;;;;;5118478;28;20195;-65
2024/01/18 09:49:31;;;;;;;27.05;17.60;;;-0.30;99.90;;;;;;5117906;28;20196;-65
2024/01/18 09:51:59;;;;;;;25.50;17.75;;;-0.20;99.90;;;;;;5117900;28;20231;-65
2024/01/18 09:54:26;;;;;;;26.35;18.52;;;-0.20;99.90;;;;;;5117287;28;20220;-63
2024/01/18 09:56:54;;;;;;;23.95;18.15;;;-0.20;99.90;;;;;;5117172;28;20216;-63
2024/01/18 09:59:23;;;;;;;28.30;19.45;;;-0.10;99.90;;;;;;5117208;28;20691;-64
2024/01/18 10:01:50;;;;;;;31.27;18.75;;;-0.10;99.90;;;;;;5117457;28;20231;-65
2024/01/18 10:04:20;;;;;;;27.38;18.80;;;-0.10;99.90;;;;;;5118085;28;20203;-64
2024/01/18 10:06:47;;;;;;;29.17;19.63;;;0.00;99.90;;;;;;5117778;28;20220;-64
2024/01/18 10:09:14;;;;;;;19.10;16.50;;;0.10;99.90;;;;;;5117696;28;20207;-63
2024/01/18 10:11:41;;;;;;;24.05;16.08;;;0.10;99.90;;;;;;5117753;28;20227;-63
2024/01/18 10:14:09;;;;;;;18.58;15.00;;;0.10;99.90;;;;;;5117141;28;20276;-64
2024/01/18 10:16:36;;;;;;;25.13;17.15;;;0.20;99.90;;;;;;5115813;28;20204;-64
2024/01/18 10:19:05;;;;;;;17.73;14.23;;;0.20;99.90;;;;;;5116850;28;20223;-64
2024/01/18 10:21:34;;;;;;;20.17;15.25;;;0.20;99.90;;;;;;5116401;28;20270;-62
2024/01/18 10:24:02;;;;;;;24.65;15.68;;;0.30;99.90;;;;;;5116822;28;20196;-64
2024/01/18 10:26:30;;;;;;;20.83;15.68;;;0.30;99.90;;;;;;5116243;28;20283;-64
2024/01/18 10:28:57;;;;;;;22.58;15.57;;;0.40;99.90;;;;;;5116549;28;20207;-64
2024/01/18 10:31:26;;;;;;;19.85;16.65;;;0.40;99.90;;;;;;5116571;28;20227;-65
2024/01/18 10:33:52;;;;;;;23.05;16.10;;;0.50;99.90;;;;;;5116202;28;20215;-64
2024/01/18 10:36:20;;;;;;;29.83;18.33;;;0.50;99.90;;;;;;5116105;28;20196;-64
2024/01/18 10:38:46;;;;;;;21.40;15.98;;;0.50;99.90;;;;;;5116127;28;20570;-65
2024/01/18 10:41:18;;;;;;;22.95;17.15;;;0.50;99.90;;;;;;5116236;28;20231;-66
2024/01/18 10:43:46;;;;;;;23.13;17.20;;;0.60;99.90;;;;;;5116554;28;20253;-64
2024/01/18 10:46:13;;;;;;;20.75;16.20;;;0.60;99.90;;;;;;5116439;28;20207;-62
2024/01/18 10:48:44;;;;;;;18.98;15.63;;;0.70;99.90;;;;;;5115787;28;20200;-64
2024/01/18 10:51:11;;;;;;;20.02;15.10;;;0.70;99.90;;;;;;5115455;28;20248;-65
2024/01/18 10:53:40;;;;;;;18.27;14.88;;;0.70;99.90;;;;;;5115342;28;20319;-65
2024/01/18 10:56:07;;;;;;;16.88;14.40;;;0.80;99.90;;;;;;5115452;28;20256;-65
2024/01/18 10:58:34;;;;;;;21.88;16.27;;;0.80;99.90;;;;;;5115077;28;20199;-65
2024/01/18 11:01:03;;;;;;;20.13;16.13;;;0.80;99.90;;;;;;5115477;28;20200;-64
2024/01/18 11:03:30;;;;;;;17.55;13.38;;;0.90;99.90;;;;;;5115233;28;20207;-64
2024/01/18 11:06:00;;;;;;;23.38;15.68;;;0.90;99.90;;;;;;5115437;28;20202;-65
2024/01/18 11:08:28;;;;;;;17.15;13.55;;;1.00;99.90;;;;;;5115025;28;20200;-65
2024/01/18 11:10:55;;;;;;;20.65;13.93;;;1.00;99.90;;;;;;5114901;28;20203;-65
2024/01/18 11:13:21;;;;;;;21.85;13.65;;;1.10;99.90;;;;;;5114790;28;20711;-65
2024/01/18 11:15:49;;;;;;;18.45;14.88;;;1.10;99.90;;;;;;5115028;28;20572;-65
2024/01/18 11:18:16;;;;;;;18.23;14.60;;;1.10;99.90;;;;;;5115087;28;20527;-64
2024/01/18 11:21:08;;;;;;;16.67;13.85;;;1.10;99.90;;;;;;5115115;28;20207;-65
2024/01/18 11:23:36;;;;;;;20.05;14.75;;;1.20;99.90;;;;;;5115841;28;20180;-65
2024/01/18 11:26:05;;;;;;;21.02;14.93;;;1.20;99.90;;;;;;5115493;28;20256;-65
2024/01/18 11:28:32;;;;;;;17.88;13.27;;;1.30;99.90;;;;;;5115108;28;20249;-65
2024/01/18 11:31:00;;;;;;;16.20;13.15;;;1.30;99.90;;;;;;5115522;28;20208;-64
2024/01/18 11:33:27;;;;;;;18.38;13.07;;;1.30;99.90;;;;;;5114967;28;20223;-64
2024/01/18 11:35:54;;;;;;;17.90;13.40;;;1.30;99.90;;;;;;5116033;28;20199;-63
2024/01/18 11:38:25;;;;;;;20.15;12.57;;;1.30;99.90;;;;;;5115070;28;20207;-66
2024/01/18 11:40:53;;;;;;;16.67;13.50;;;1.30;99.90;;;;;;5115222;28;20203;-65
2024/01/18 11:43:21;;;;;;;12.77;10.90;;;1.30;99.90;;;;;;5115980;28;20206;-66
2024/01/18 11:45:49;;;;;;;16.70;13.00;;;1.40;99.90;;;;;;5115784;28;20267;-65
2024/01/18 11:48:17;;;;;;;14.15;12.20;;;1.40;99.90;;;;;;5115256;28;20814;-65
2024/01/18 11:50:44;;;;;;;16.45;12.88;;;1.40;99.90;;;;;;5114991;28;20214;-65
2024/01/18 11:53:12;;;;;;;15.75;12.70;;;1.40;99.90;;;;;;5115420;28;20216;-66
2024/01/18 11:55:46;;;;;;;15.93;12.52;;;1.40;99.90;;;;;;5115769;28;20336;-63
2024/01/18 11:58:13;;;;;;;16.33;12.20;;;1.40;99.90;;;;;;5115595;28;20592;-65
2024/01/18 12:00:41;;;;;;;14.85;11.63;;;1.40;99.90;;;;;;5115343;28;20206;-65
2024/01/18 12:03:11;;;;;;;14.07;11.73;;;1.40;99.90;;;;;;5115743;28;20215;-64
2024/01/18 12:05:40;;;;;;;15.38;11.35;;;1.50;99.90;;;;;;5115005;28;20184;-65
2024/01/18 12:08:07;;;;;;;17.13;12.18;;;1.60;99.90;;;;;;5117058;28;20295;-64
2024/01/18 12:10:34;;;;;;;17.83;13.18;;;1.60;99.90;;;;;;5119765;28;20573;-65
2024/01/18 12:13:02;;;;;;;14.43;12.10;;;1.60;99.90;;;;;;5119267;28;20693;-64
2024/01/18 12:15:31;;;;;;;15.13;11.90;;;1.70;99.90;;;;;;5119299;28;20196;-65
2024/01/18 12:17:58;;;;;;;13.57;10.38;;;1.70;99.90;;;;;;5120126;28;20204;-65
2024/01/18 12:20:25;;;;;;;18.85;11.93;;;1.70;99.90;;;;;;5122184;28;20200;-66
2024/01/18 12:22:51;;;;;;;16.75;11.95;;;1.70;99.90;;;;;;5120555;28;20216;-64
2024/01/18 12:25:18;;;;;;;14.55;12.38;;;1.70;99.90;;;;;;5119222;28;20305;-65
2024/01/18 12:27:45;;;;;;;16.17;12.30;;;1.70;99.90;;;;;;5120338;28;20196;-64
2024/01/18 12:30:14;;;;;;;13.50;11.85;;;1.80;99.90;;;;;;5120366;28;20210;-63
2024/01/18 12:32:42;;;;;;;16.30;12.63;;;1.80;99.90;;;;;;5118117;28;20241;-65